createdAt,value
2022-09-16T00:02:12.575Z,99031.44
2022-09-16T00:07:14.171Z,99026.44
2022-09-16T00:12:15.687Z,99023.13
2022-09-16T00:17:17.288Z,99016.84
2022-09-16T00:22:18.877Z,99032.78
2022-09-16T00:27:20.547Z,99030.97
2022-09-16T00:32:24.038Z,99035.56
2022-09-16T00:37:25.742Z,99031.69
2022-09-16T00:42:27.273Z,99026.88
2022-09-16T00:47:34.284Z,99033.25
2022-09-16T00:52:36.391Z,99042.63
2022-09-16T00:57:40.111Z,99040.16
2022-09-16T01:02:44.043Z,99035.72
2022-09-16T01:07:48.546Z,99044.88
2022-09-16T01:12:55.862Z,99038.06
2022-09-16T01:18:02.839Z,99036.75
2022-09-16T01:23:41.889Z,99032.00
2022-09-16T01:29:14.981Z,99042.03
2022-09-16T01:34:38.284Z,99045.34
2022-09-16T01:40:00.997Z,99054.88
2022-09-16T01:45:13.814Z,99051.03
2022-09-16T01:50:19.481Z,99057.94
2022-09-16T01:55:40.205Z,99056.66
2022-09-16T02:00:45.084Z,99058.00
2022-09-16T02:05:58.466Z,99056.66
2022-09-16T02:11:03.758Z,99051.31
2022-09-16T02:16:11.213Z,99051.19
2022-09-16T02:21:16.186Z,99050.44
2022-09-16T02:26:21.629Z,99047.88
2022-09-16T02:31:28.568Z,99053.25
2022-09-16T02:36:32.407Z,99043.38
2022-09-16T02:41:35.073Z,99043.19
2022-09-16T02:46:45.555Z,99041.00
2022-09-16T02:52:24.506Z,99051.47
2022-09-16T02:57:26.536Z,99049.75
2022-09-16T03:02:28.387Z,99034.63
2022-09-16T03:07:30.251Z,99050.19
2022-09-16T03:12:57.911Z,99044.97
2022-09-16T03:18:22.525Z,99042.91
2022-09-16T03:23:36.191Z,99050.63
2022-09-16T03:29:09.769Z,99044.75
2022-09-16T03:34:20.247Z,99043.06
2022-09-16T03:39:22.635Z,99041.53
2022-09-16T03:44:32.092Z,99035.75
2022-09-16T03:49:33.890Z,99033.25
2022-09-16T03:54:36.168Z,99036.84
2022-09-16T03:59:37.763Z,99040.84
2022-09-16T04:04:39.386Z,99034.03
2022-09-16T04:09:41.277Z,99038.91
2022-09-16T04:14:43.188Z,99030.56
2022-09-16T04:19:44.813Z,99029.53
2022-09-16T04:24:46.368Z,99031.25
2022-09-16T04:29:47.944Z,99035.41
2022-09-16T04:34:49.521Z,99028.66
2022-09-16T04:39:51.114Z,99040.06
2022-09-16T04:44:52.716Z,99051.19
2022-09-16T04:49:54.227Z,99046.81
2022-09-16T04:54:58.310Z,99055.81
2022-09-16T04:59:59.981Z,99053.84
2022-09-16T05:05:01.654Z,99056.84
2022-09-16T05:10:03.646Z,99059.56
2022-09-16T05:15:05.879Z,99055.31
2022-09-16T05:20:07.724Z,99059.22
2022-09-16T05:25:09.534Z,99062.34
2022-09-16T05:30:11.759Z,99063.63
2022-09-16T05:35:13.355Z,99062.94
2022-09-16T05:40:14.972Z,99064.59
2022-09-16T05:45:19.066Z,99059.47
2022-09-16T05:50:24.836Z,99054.34
2022-09-16T05:55:26.891Z,99061.59
2022-09-16T06:00:28.594Z,99055.78
2022-09-16T06:05:31.757Z,99051.72
2022-09-16T06:10:40.514Z,99054.56
2022-09-16T06:15:54.254Z,99061.06
2022-09-16T06:20:56.401Z,99055.34
2022-09-16T06:26:07.328Z,99053.66
2022-09-16T06:31:15.001Z,99053.66
2022-09-16T06:36:22.310Z,99062.78
2022-09-16T06:41:24.881Z,99064.03
2022-09-16T06:46:28.363Z,99051.56
2022-09-16T06:51:31.675Z,99058.06
2022-09-16T06:56:36.178Z,99048.28
2022-09-16T07:01:38.121Z,99053.78
2022-09-16T07:12:02.546Z,99052.84
2022-09-16T07:17:04.201Z,99062.66
2022-09-16T07:22:05.801Z,99066.63
2022-09-16T07:27:07.503Z,99064.78
2022-09-16T07:32:09.060Z,99072.91
2022-09-16T07:37:10.748Z,99076.13
2022-09-16T07:42:12.319Z,99072.34
2022-09-16T07:47:14.757Z,99067.44
2022-09-16T07:52:18.489Z,99063.56
2022-09-16T07:57:20.036Z,99064.59
2022-09-16T08:02:21.820Z,99071.22
2022-09-16T08:07:23.495Z,99073.75
2022-09-16T08:12:25.216Z,99061.66
2022-09-16T08:17:28.664Z,99057.59
2022-09-16T08:22:32.370Z,99059.03
2022-09-16T08:27:37.110Z,99054.03
2022-09-16T08:32:38.718Z,99053.06
2022-09-16T08:37:41.409Z,99054.31
2022-09-16T08:43:20.124Z,99059.28
2022-09-16T08:48:43.195Z,99055.13
2022-09-16T08:53:57.212Z,99057.22
2022-09-16T08:59:01.709Z,99059.63
2022-09-16T09:04:04.025Z,99070.72
2022-09-16T09:09:08.592Z,99069.41
2022-09-16T09:14:16.882Z,99074.28
2022-09-16T09:19:38.826Z,99069.56
2022-09-16T09:25:01.445Z,99070.34
2022-09-16T09:30:15.030Z,99060.59
2022-09-16T09:35:53.947Z,99055.47
2022-09-16T09:41:06.583Z,99052.53
2022-09-16T09:46:11.755Z,99046.19
2022-09-16T09:51:17.706Z,99023.03
2022-09-16T09:56:31.379Z,99030.31
2022-09-16T10:01:32.954Z,99027.88
2022-09-16T10:06:35.860Z,99030.97
2022-09-16T10:11:47.523Z,99025.00
2022-09-16T10:16:51.959Z,99020.22
2022-09-16T10:21:56.399Z,99023.59
2022-09-16T10:26:59.662Z,99019.78
2022-09-16T10:32:18.109Z,99031.94
2022-09-16T10:37:20.858Z,99060.44
2022-09-16T10:42:24.099Z,99032.25
2022-09-16T10:47:28.939Z,99028.06
2022-09-16T10:52:50.886Z,99025.44
2022-09-16T10:57:54.672Z,99030.47
2022-09-16T11:03:37.238Z,99027.19
2022-09-16T11:08:47.811Z,99028.41
2022-09-16T11:14:03.379Z,99040.94
2022-09-16T11:19:20.283Z,99037.31
2022-09-16T11:24:49.096Z,99028.47
2022-09-16T11:30:08.294Z,99037.72
2022-09-16T11:35:36.988Z,99028.47
2022-09-16T11:41:02.885Z,99027.72
2022-09-16T11:46:17.305Z,99019.31
2022-09-16T11:51:31.005Z,99018.47
2022-09-16T11:56:43.537Z,99005.16
2022-09-16T12:02:02.276Z,99002.84
2022-09-16T12:07:09.790Z,98996.53
2022-09-16T12:12:18.654Z,98991.13
2022-09-16T12:17:25.653Z,98989.00
2022-09-16T12:22:34.012Z,98992.00
2022-09-16T12:27:48.685Z,98975.38
2022-09-16T12:33:33.199Z,98982.44
2022-09-16T12:38:35.508Z,98969.00
2022-09-16T12:44:30.548Z,98964.75
2022-09-16T12:50:02.181Z,98953.94
2022-09-16T12:55:32.043Z,98953.34
2022-09-16T13:00:40.888Z,98940.00
2022-09-16T13:05:48.568Z,98939.25
2022-09-16T13:16:36.725Z,98935.78
2022-09-16T13:21:47.430Z,98923.53
2022-09-16T13:26:49.125Z,98923.19
2022-09-16T13:31:50.938Z,98915.00
2022-09-16T13:36:52.884Z,98920.34
2022-09-16T13:41:54.576Z,98916.41
2022-09-16T13:47:10.263Z,98923.63
2022-09-16T13:52:33.476Z,98921.44
2022-09-16T13:58:02.891Z,98932.59
2022-09-16T14:03:27.269Z,98945.94
2022-09-16T14:08:58.098Z,98941.34
2022-09-16T14:14:46.392Z,98943.66
2022-09-16T14:19:49.896Z,98930.34
2022-09-16T14:25:00.625Z,98914.34
2022-09-16T14:30:17.609Z,98913.50
2022-09-16T14:35:23.040Z,98918.69
2022-09-16T14:40:27.150Z,98910.63
2022-09-16T14:45:31.436Z,98905.22
2022-09-16T14:50:38.398Z,98911.78
2022-09-16T14:55:49.231Z,98907.66
2022-09-16T15:01:15.890Z,98905.44
2022-09-16T15:06:25.173Z,98902.16
2022-09-16T15:11:48.899Z,98906.59
2022-09-16T15:16:55.763Z,98889.34
2022-09-16T15:21:58.111Z,98893.03
2022-09-16T15:27:01.972Z,98887.34
2022-09-16T15:32:16.730Z,98891.56
2022-09-16T15:37:34.930Z,98893.25
2022-09-16T15:42:38.073Z,98883.28
2022-09-16T15:47:54.580Z,98890.50
2022-09-16T15:53:07.083Z,98900.59
2022-09-16T15:58:13.123Z,98902.59
2022-09-16T16:03:21.215Z,98900.56
2022-09-16T16:08:41.586Z,98891.91
2022-09-16T16:13:44.049Z,98901.63
2022-09-16T16:18:46.479Z,98905.19
2022-09-16T16:23:48.520Z,98902.72
2022-09-16T16:28:50.213Z,98904.31
2022-09-16T16:33:52.015Z,98912.19
2022-09-16T16:38:53.791Z,98897.53
2022-09-16T16:43:55.683Z,98900.22
2022-09-16T16:48:57.635Z,98897.09
2022-09-16T16:54:00.271Z,98900.16
2022-09-16T16:59:02.268Z,98898.50
2022-09-16T17:04:05.507Z,98897.69
2022-09-16T17:09:13.675Z,98893.66
2022-09-16T17:14:17.588Z,98901.72
2022-09-16T17:19:19.666Z,98892.28
2022-09-16T17:24:22.115Z,98902.13
2022-09-16T17:29:24.388Z,98898.97
2022-09-16T17:34:26.593Z,98899.66
2022-09-16T17:39:28.931Z,98895.97
2022-09-16T17:44:30.819Z,98899.91
2022-09-16T17:49:33.218Z,98907.63
2022-09-16T17:54:35.082Z,98915.19
2022-09-16T17:59:37.055Z,98904.59
2022-09-16T18:04:38.934Z,98913.78
2022-09-16T18:09:40.617Z,98917.66
2022-09-16T18:14:42.696Z,98913.78
2022-09-16T18:19:44.809Z,98915.84
2022-09-16T18:24:46.782Z,98916.56
2022-09-16T18:29:48.612Z,98924.16
2022-09-16T18:34:50.424Z,98923.25
2022-09-16T18:39:52.223Z,98925.69
2022-09-16T18:44:54.488Z,98925.41
2022-09-16T18:49:56.177Z,98928.41
2022-09-16T18:54:57.986Z,98924.16
2022-09-16T18:59:59.610Z,98931.38
2022-09-16T19:05:01.887Z,98929.31
2022-09-16T19:10:04.090Z,98924.25
2022-09-16T19:15:06.422Z,98925.78
2022-09-16T19:20:09.179Z,98937.66
2022-09-16T19:25:10.756Z,98931.53
2022-09-16T19:30:12.862Z,98937.25
2022-09-16T19:35:15.663Z,98949.50
2022-09-16T19:40:18.582Z,98941.50
2022-09-16T19:45:24.777Z,98950.84
2022-09-16T19:50:29.456Z,98948.16
2022-09-16T19:55:31.981Z,98949.00
2022-09-16T20:00:55.081Z,98951.72
2022-09-16T20:06:11.148Z,98952.75
2022-09-16T20:11:19.431Z,98946.34
2022-09-16T20:16:23.121Z,98943.94
2022-09-16T20:21:26.845Z,98948.00
2022-09-16T20:26:28.696Z,98952.44
2022-09-16T20:31:33.388Z,98943.69
2022-09-16T20:36:38.052Z,98928.91
2022-09-16T20:41:40.897Z,98929.31
2022-09-16T20:46:43.346Z,98933.22
2022-09-16T20:51:45.585Z,98931.59
2022-09-16T20:56:48.286Z,98925.06
2022-09-16T21:01:50.065Z,98935.13
2022-09-16T21:06:51.690Z,98933.75
2022-09-16T21:11:53.235Z,98939.34
2022-09-16T21:16:54.780Z,98934.84
2022-09-16T21:21:56.646Z,98934.34
2022-09-16T21:26:58.253Z,98932.56
2022-09-16T21:32:00.203Z,98940.38
2022-09-16T21:37:03.671Z,98950.75
2022-09-16T21:42:05.516Z,98950.16
2022-09-16T21:47:10.461Z,98943.19
2022-09-16T21:52:11.998Z,98945.28
2022-09-16T21:57:14.457Z,98939.28
2022-09-16T22:02:16.129Z,98944.13
2022-09-16T22:07:17.714Z,98943.88
2022-09-16T22:12:19.223Z,98941.69
2022-09-16T22:17:21.533Z,98940.59
2022-09-16T22:22:23.191Z,98942.88
2022-09-16T22:27:24.706Z,98939.44
2022-09-16T22:32:27.159Z,98927.72
2022-09-16T22:37:28.757Z,98925.69
2022-09-16T22:42:30.258Z,98917.34
2022-09-16T22:47:31.812Z,98913.97
2022-09-16T22:52:33.370Z,98921.06
2022-09-16T22:57:34.909Z,98919.78
2022-09-16T23:02:36.532Z,98920.19
2022-09-16T23:07:39.041Z,98922.81
2022-09-16T23:12:40.896Z,98917.97
2022-09-16T23:17:42.447Z,98922.53
2022-09-16T23:22:43.970Z,98910.38
2022-09-16T23:27:45.501Z,98910.88
2022-09-16T23:32:47.146Z,98897.72
2022-09-16T23:37:49.419Z,98897.00
2022-09-16T23:42:50.923Z,98906.03
2022-09-16T23:47:53.677Z,98903.91
2022-09-16T23:52:55.224Z,98905.38
2022-09-16T23:57:57.782Z,98894.84
